Map

Track Data

SID SEASON NUMBER BASIN SUBBASIN NAME ISO_TIME NATURE LAT LON WMO_WIND WMO_PRES WMO_AGENCY TRACK_TYPE DIST2LAND LANDFALL IFLAG USA_AGENCY USA_ATCF_ID USA_LAT USA_LON USA_RECORD USA_STATUS USA_WIND USA_PRES USA_SSHS USA_R34_NE USA_R34_SE USA_R34_SW USA_R34_NW USA_R50_NE USA_R50_SE USA_R50_SW USA_R50_NW USA_R64_NE USA_R64_SE USA_R64_SW USA_R64_NW USA_POCI USA_ROCI USA_RMW USA_EYE TOKYO_LAT TOKYO_LON TOKYO_GRADE TOKYO_WIND TOKYO_PRES TOKYO_R50_DIR TOKYO_R50_LONG TOKYO_R50_SHORT TOKYO_R30_DIR TOKYO_R30_LONG TOKYO_R30_SHORT TOKYO_LAND CMA_LAT CMA_LON CMA_CAT CMA_WIND CMA_PRES HKO_LAT HKO_LON HKO_CAT HKO_WIND HKO_PRES NEWDELHI_LAT NEWDELHI_LON NEWDELHI_GRADE NEWDELHI_WIND NEWDELHI_PRES NEWDELHI_CI NEWDELHI_DP NEWDELHI_POCI REUNION_LAT REUNION_LON REUNION_TYPE REUNION_WIND REUNION_PRES REUNION_TNUM REUNION_CI REUNION_RMW REUNION_R34_NE REUNION_R34_SE REUNION_R34_SW REUNION_R34_NW REUNION_R50_NE REUNION_R50_SE REUNION_R50_SW REUNION_R50_NW REUNION_R64_NE REUNION_R64_SE REUNION_R64_SW REUNION_R64_NW BOM_LAT BOM_LON BOM_TYPE BOM_WIND BOM_PRES BOM_TNUM BOM_CI BOM_RMW BOM_R34_NE BOM_R34_SE BOM_R34_SW BOM_R34_NW BOM_R50_NE BOM_R50_SE BOM_R50_SW BOM_R50_NW BOM_R64_NE BOM_R64_SE BOM_R64_SW BOM_R64_NW BOM_ROCI BOM_POCI BOM_EYE BOM_POS_METHOD BOM_PRES_METHOD NADI_LAT NADI_LON NADI_CAT NADI_WIND NADI_PRES WELLINGTON_LAT WELLINGTON_LON WELLINGTON_WIND WELLINGTON_PRES DS824_LAT DS824_LON DS824_STAGE DS824_WIND DS824_PRES TD9636_LAT TD9636_LON TD9636_STAGE TD9636_WIND TD9636_PRES TD9635_LAT TD9635_LON TD9635_WIND TD9635_PRES TD9635_ROCI NEUMANN_LAT NEUMANN_LON NEUMANN_CLASS NEUMANN_WIND NEUMANN_PRES MLC_LAT MLC_LON MLC_CLASS MLC_WIND MLC_PRES USA_GUST BOM_GUST BOM_GUST_PER REUNION_GUST REUNION_GUST_PER USA_SEAHGT USA_SEARAD_NE USA_SEARAD_SE USA_SEARAD_SW USA_SEARAD_NW STORM_SPEED STORM_DIR
1881256N32318 1881 38 NA NA NOT_NAMED 1881-09-13 00:00:00 TS 32.0000 -42.5000 spur-merge 1862 1838 _____________O -1 32.0000 -42.5000 TD 30 10 270
1881256N32318 1881 38 NA NA NOT_NAMED 1881-09-13 03:00:00 TS 32.0004 -43.0875 spur-merge 1838 1814 _____________P -1 32.0004 -43.0875 TD 30 10 270
1881256N32318 1881 38 NA NA NOT_NAMED 1881-09-13 06:00:00 TS 32.0000 -43.7000 spur-merge 1814 1792 _____________O -1 32.0000 -43.7000 TD 30 11 270
1881256N32318 1881 38 NA NA NOT_NAMED 1881-09-13 09:00:00 TS 31.9999 -44.3500 spur-merge 1792 1768 _____________P -1 31.9999 -44.3500 TD 30 11 270
1881256N32318 1881 38 NA NA NOT_NAMED 1881-09-13 12:00:00 TS 32.0000 -45.0000 spur-merge 1768 1749 _____________O -1 32.0000 -45.0000 TD 30 11 270
1881256N32318 1881 38 NA NA NOT_NAMED 1881-09-13 15:00:00 TS 31.9997 -45.6150 spur-merge 1749 1730 _____________P -1 31.9997 -45.6150 TD 30 10 270
1881256N32318 1881 38 NA NA NOT_NAMED 1881-09-13 18:00:00 TS 32.0000 -46.2000 spur-merge 1730 1713 _____________O -1 32.0000 -46.2000 TD 30 10 270
1881256N32318 1881 38 NA NA NOT_NAMED 1881-09-13 21:00:00 TS 32.0001 -46.7950 spur-merge 1713 1700 _____________P -1 32.0001 -46.7950 TD 32 9 270
1881256N32318 1881 38 NA NA NOT_NAMED 1881-09-14 00:00:00 TS 32.0000 -47.3000 spur-merge 1700 1693 _____________O -1 32.0000 -47.3000 TS 35 7 270
1881256N32318 1881 38 NA NA NOT_NAMED 1881-09-14 03:00:00 TS 31.9996 -47.6375 spur-merge 1693 1686 _____________P -1 31.9996 -47.6375 TS 35 5 270
1881256N32318 1881 38 NA NA NOT_NAMED 1881-09-14 06:00:00 TS 32.0000 -47.9000 spur-merge 1686 1679 _____________O -1 32.0000 -47.9000 TS 35 5 265
1881256N32318 1881 38 NA NA NOT_NAMED 1881-09-14 09:00:00 TS 31.9622 -48.1780 spur-merge 1679 1673 _____________P -1 31.9622 -48.1780 TS 35 5 270
1881256N32318 1881 38 NA NA NOT_NAMED 1881-09-14 12:00:00 TS 32.0000 -48.5000 spur-merge 1673 1643 _____________O -1 32.0000 -48.5000 TS 35 7 291
1881256N32318 1881 38 NA NA NOT_NAMED 1881-09-14 15:00:00 TS 32.2126 -48.9272 spur-merge 1643 1602 _____________P -1 32.2126 -48.9272 TS 35 9 303
1881256N32318 1881 38 NA NA NOT_NAMED 1881-09-14 18:00:00 TS 32.5000 -49.4000 spur-merge 1602 1573 _____________O -1 32.5000 -49.4000 TS 35 9 305
1881256N32318 1881 38 NA NA NOT_NAMED 1881-09-14 21:00:00 TS 32.7498 -49.8503 spur-merge 1572 1533 _____________P -1 32.7498 -49.8503 TS 37 9 303
1881256N32318 1881 38 NA NA NOT_NAMED 1881-09-15 00:00:00 TS 33.0000 -50.3000 spur-merge 1533 1506 _____________O -1 33.0000 -50.3000 TS 40 9 304
1881256N32318 1881 38 NA NA NOT_NAMED 1881-09-15 03:00:00 TS 33.2498 -50.7503 spur-merge 1505 1467 _____________P -1 33.2498 -50.7503 TS 40 9 304
1881256N32318 1881 38 NA NA NOT_NAMED 1881-09-15 06:00:00 TS 33.5000 -51.2000 spur-merge 1467 1430 _____________O -1 33.5000 -51.2000 TS 40 9 305
1881256N32318 1881 38 NA NA NOT_NAMED 1881-09-15 09:00:00 TS 33.7722 -51.6424 spur-merge 1430 1405 _____________P -1 33.7722 -51.6424 TS 40 9 304
1881256N32318 1881 38 NA NA NOT_NAMED 1881-09-15 12:00:00 TS 34.0000 -52.1000 spur-merge 1405 1391 _____________O -1 34.0000 -52.1000 TS 40 9 294
1881256N32318 1881 38 NA NA NOT_NAMED 1881-09-15 15:00:00 TS 34.1222 -52.5780 spur-merge 1391 1379 _____________P -1 34.1222 -52.5780 TS 45 9 284
1881256N32318 1881 38 NA NA NOT_NAMED 1881-09-15 18:00:00 TS 34.2000 -53.1000 spur-merge 1379 1365 _____________O -1 34.2000 -53.1000 TS 50 9 281
1881256N32318 1881 38 NA NA NOT_NAMED 1881-09-15 21:00:00 TS 34.3000 -53.6926 spur-merge 1365 1333 _____________P -1 34.3000 -53.6926 TS 50 10 281
1881256N32318 1881 38 NA NA NOT_NAMED 1881-09-16 00:00:00 TS 34.4000 -54.3000 spur-merge 1333 1304 _____________O -1 34.4000 -54.3000 TS 50 10 282
1881256N32318 1881 38 NA NA NOT_NAMED 1881-09-16 03:00:00 TS 34.4996 -54.8577 spur-merge 1301 1274 _____________P -1 34.4996 -54.8577 TS 50 9 282
1881256N32318 1881 38 NA NA NOT_NAMED 1881-09-16 06:00:00 TS 34.6000 -55.4000 spur-merge 1274 1248 _____________O -1 34.6000 -55.4000 TS 50 9 282
1881256N32318 1881 38 NA NA NOT_NAMED 1881-09-16 09:00:00 TS 34.6849 -55.9579 spur-merge 1245 1221 _____________P -1 34.6849 -55.9579 TS 55 9 282
1881256N32318 1881 38 NA NA NOT_NAMED 1881-09-16 12:00:00 TS 34.8000 -56.5000 spur-merge 1221 1183 _____________O -1 34.8000 -56.5000 TS 60 9 290
1881256N32318 1881 38 NA NA NOT_NAMED 1881-09-16 15:00:00 TS 34.9922 -57.0074 spur-merge 1183 1139 _____________P -1 34.9922 -57.0074 TS 60 9 296
1881256N32318 1881 38 NA NA NOT_NAMED 1881-09-16 18:00:00 TS 35.2000 -57.5000 spur-merge 1139 1105 _____________O -1 35.2000 -57.5000 TS 60 9 294
1881256N32318 1881 38 NA NA NOT_NAMED 1881-09-16 21:00:00 TS 35.3498 -58.0005 spur-merge 1105 1062 _____________P -1 35.3498 -58.0005 TS 60 9 290
1881256N32318 1881 38 NA NA NOT_NAMED 1881-09-17 00:00:00 TS 35.5000 -58.5000 spur-merge 1062 1020 _____________O -1 35.5000 -58.5000 TS 60 9 293
1881256N32318 1881 38 NA NA NOT_NAMED 1881-09-17 03:00:00 TS 35.6923 -59.0001 spur-merge 1020 979 _____________P -1 35.6923 -59.0001 TS 60 9 296
1881256N32318 1881 38 NA NA NOT_NAMED 1881-09-17 06:00:00 TS 35.9000 -59.5000 spur-merge 979 938 _____________O -1 35.9000 -59.5000 TS 60 9 295
1881256N32318 1881 38 NA NA NOT_NAMED 1881-09-17 09:00:00 TS 36.0850 -60.0228 spur-merge 938 898 _____________P -1 36.0850 -60.0228 TS 62 9 296
1881256N32318 1881 38 NA NA NOT_NAMED 1881-09-17 12:00:00 TS 36.3000 -60.5000 spur-merge 898 853 _____________O -1 36.3000 -60.5000 HU 65 9 306
1881256N32318 1881 38 NA NA NOT_NAMED 1881-09-17 15:00:00 TS 36.5922 -60.8801 spur-merge 853 812 _____________P -1 36.5922 -60.8801 HU 65 8 317
1881256N32318 1881 38 NA NA NOT_NAMED 1881-09-17 18:00:00 TS 36.9000 -61.2000 spur-merge 812 781 _____________O -1 36.9000 -61.2000 HU 65 8 318
1881256N32318 1881 38 NA NA NOT_NAMED 1881-09-17 21:00:00 TS 37.1499 -61.5080 spur-merge 781 740 _____________P -1 37.1499 -61.5080 HU 65 7 316
1881256N32318 1881 38 NA NA NOT_NAMED 1881-09-18 00:00:00 TS 37.4000 -61.8000 spur-merge 740 699 _____________O -1 37.4000 -61.8000 HU 65 7 320
1881256N32318 1881 38 NA NA NOT_NAMED 1881-09-18 03:00:00 TS 37.6999 -62.1001 spur-merge 699 658 _____________P -1 37.6999 -62.1001 HU 65 8 322
1881256N32318 1881 38 NA NA NOT_NAMED 1881-09-18 06:00:00 TS 38.0000 -62.4000 spur-merge 658 621 _____________O -1 38.0000 -62.4000 HU 65 7 324
1881256N32318 1881 38 NA NA NOT_NAMED 1881-09-18 09:00:00 TS 38.2943 -62.6475 spur-merge 621 588 _____________P -1 38.2627 -62.6997 HU 65 7 317
1881256N32318 1881 38 NA NA NOT_NAMED 1881-09-18 12:00:00 TS 38.5000 -63.0000 spur-merge 588 574 _____________O -1 38.5000 -63.0000 HU 65 8 288
1881256N32318 1881 38 NA NA NOT_NAMED 1881-09-18 15:00:00 TS 38.5380 -63.6056 spur-merge 574 ______________ -1 HU 9 275

About IBTrACS Database

This database is a web-friendly format of International Best Track Archive for Climate Stewardship (IBTrACS), a global best track data archive curated by NOAA dating back to 1842.

Updated: 2021-10-27